Kezdőlap
METAR-TAF:

METAR-TAF

Repülőterek :

Grozny, Oroszország

földrajzi szélesség: 43-23-18N, földrajzi hosszúság: 045-41-59E, magasság: 167 m

Jelenlegi meteorológiai megfigyelések

A jelentés 35 perccel ezelõtt készült, 05:30 UTC
Nyugat-északnyugati szél 6 kt
Hőmérséklet 12°C
Páratartalom 100%
Légköri nyomás 1018 hPa
Látótávolság: 7000 m

METAR: URMG 230530Z 30003MPS 7000 NSC 12/12 Q1018 R26/000070 NOSIG RMK QFE749/0999

Idő: 09:05 (06:05 UTC)

Előrejelzés

A jelentés 1 órával és 5 perccel ezelõtt készült, 05:00 UTC
Az előrejelzés 23-én 06 óra UTC és 23-én 15 óra UTC között érvényes
Nyugat-északnyugati szél 6 kt széllökések: 16 kt
Látótávolság 10 km, vagy több
Szórványos felhőzet 3000 lábon
23-én 10 óra UTC és 23-én 11 óra UTC között fokozatosan kialakuló
Északi szél 6 kt széllökések: 16 kt

TAF: URMG 230500Z 2306/2315 30003G08MPS 9999 SCT030 BECMG 2310/2311 36003G08MPS

Meteorológiai megfigyelések és előrejelzések több, mint 4000 repülőtéren (METAR és TAF jelentéseket).

A térképen piros és sárga pontok jelzik az elérhető meteorológiai állomásokat.

Mozgassa az egeret a pont fölött, hogy megjelenjen az állomás neve.

Azután kattintson az időjárási megfigyelések és előrejelzések megtekintéséhez.

A térkép megváltoztatása: kattintson a fekete keresztel jelölt zöld gombra ráközelítéshez, a vonallal jelölt zöld gombra távolításhoz, vagy a zöld nyilakra a szomszédos térképek eléréséhez.


METAR-TAF: